Terminal Aerodrome Forecast
Issued by NWS

Home | Current Version | Previous Version | Text Only | Print | Product List | Glossary On
Versions: 1 2 3 4 5 6 7 8 9 10 11 12 13 14 15 16
000
FTUS44 KLZK 032300
TAFBPK
TAF
KBPK 032339Z 0400/0424 22005KT 5SM -RA BR OVC015
      TEMPO 0400/0404 2SM SHRA BR OVC008
     FM040400 32007KT 3SM -RA BR OVC008
     FM040900 36009KT 3SM -RAPL OVC005
     FM041300 01009KT 2SM -SN BR OVC004=

USA.gov is the U.S. government's official web portal to all federal, state and local government web resources and services.